CKC4 weather

K. Coffey Residence Helipad
Calgary, Alberta, Canada

Public forecast

Using degrees Celsius for public forecast. Weather courtesy of forecast.io.

Closest aviation weather report (METAR) to K. Coffey Residence Helipad

Closest report is Calgary / Springbank Airport, 4.4 nm (8.1 km) SSW. Retrieved 2020/04/10 03:00 UTC (18 minutes ago):

CYBW 100300Z AUTO 11005KT 9SM BKN240 05/M02 A2982 RMK SLP142

Closest aviation forecast (TAF) to K. Coffey Residence Helipad

Closest forecast is Calgary / Springbank Airport, 4.4 nm (8.1 km) SSW. Retrieved 2020-04-10 00:00 UTC (3 hours ago):

TAF CYBW 092352Z 1000/1004 16010KT P6SM FEW100 SCT260 BECMG 1000/1002 12008KT SCT100 BKN240 FM100200 12008KT P6SM SCT100 BKN240 BECMG 1002/1004 30010KT RMK FCST BASED ON AUTO OBS NXT FCST WILL BE ISSUED AT 101145Z